Pahranagat National Wildlife Refuge, Nevada Weather observations

Data are for 10 minute period ending at time listed.
 Day   Time   Solar   Ave.   Ave.  Ave.  Vector  Max.   Baro.   Total    
  of    of     Rad.   Air    Rel.  Wind   Wind   Wind  Press.  Precip.   
Year   Day            Temp.  Hum.  Speed  Dir.   Gust                    
2014   (PST)  Kw/m2    F      %     mph   deg.    mph    mb.     in.     
-------------------------------------------------------------------------
 352    0:00   0.00   38.6    94    0.3   108     1.6   904.5    0.00 
 352    0:10   0.00   38.9    95    0.3   129     1.3   904.4    0.00 
 352    0:20   0.00   38.4    95    0.1   307     1.2   904.4    0.00 
 352    0:30   0.00   38.9    95    1.6   326     2.1   904.4    0.00 
 352    0:40   0.00   38.2    95    1.3   322     2.2   904.4    0.00 
 352    0:50   0.00   37.3    95    2.0   333     2.6   904.4    0.00 
 352    1:00   0.00   36.9    95    1.1   327     1.8   904.4    0.00 
 352    1:10   0.00   36.9    95    0.1   348     0.9   904.4    0.00 
 352    1:20   0.00   36.6    95    0.0     0     0.0   904.5    0.00 
 352    1:30   0.00   36.8    96    0.0     0     0.0   904.4    0.00 
 352    1:40   0.00   37.7    96    0.0     0     0.0   904.4    0.00 
 352    1:50   0.00   37.4    96    0.0     0     0.0   904.5    0.00 
 352    2:00   0.00   36.9    96    0.8   271     1.5   904.5    0.00 
 352    2:10   0.00   36.8    96    0.4    61     1.4   904.6    0.00 
 352    2:20   0.00   37.8    96    1.1    21     1.8   904.7    0.00 
 352    2:30   0.00   38.5    96    1.0    17     1.5   904.7    0.00 
 352    2:40   0.00   38.9    96    0.8    30     1.2   904.8    0.00 
 352    2:50   0.00   38.9    96    0.5    40     1.5   904.8    0.00 
 352    3:00   0.00   37.9    96    1.5   346     1.9   904.7    0.00 
 352    3:10   0.00   37.1    96    1.4   215     2.6   904.8    0.00 
 352    3:20   0.00   37.1    96    2.1   248     2.7   904.8    0.00 
 352    3:30   0.00   37.0    96    0.2   271     1.3   904.8    0.00 
 352    3:40   0.00   37.6    96    1.3     7     1.7   904.8    0.00 
 352    3:50   0.00   38.1    96    1.6   346     2.0   904.8    0.00 
 352    4:00   0.00   37.9    96    0.7   358     1.8   904.8    0.00 
 352    4:10   0.00   37.7    96    0.8   244     1.8   904.9    0.00 
 352    4:20   0.00   38.1    96    0.5   276     1.5   904.8    0.00 
 352    4:30   0.00   38.4    96    2.0   322     4.7   905.0    0.00 
 352    4:40   0.00   38.8    96    3.9   343     5.8   905.1    0.00 
 352    4:50   0.00   38.9    96    3.6   342     5.8   905.1    0.00 
 352    5:00   0.00   38.9    96    1.3   276     3.2   905.3    0.00 
 352    5:10   0.00   38.7    96    2.3   255     2.9   905.4    0.00 
 352    5:20   0.00   38.8    96    3.0   318     4.8   905.4    0.00 
 352    5:30   0.00   38.8    96    1.9   312     4.7   905.4    0.00 
 352    5:40   0.00   38.4    95    2.5   343     4.4   905.4    0.00 
 352    5:50   0.00   38.7    96    2.5   341     4.0   905.6    0.00 
 352    6:00   0.00   39.0    96    2.2   321     3.8   905.8    0.00 
 352    6:10   0.00   39.0    95    1.3   351     2.5   905.8    0.00 
 352    6:20   0.00   38.9    95    1.8    25     4.2   905.8    0.00 
 352    6:30   0.00   39.2    95    3.0    37     3.7   905.9    0.00 
 352    6:40   0.00   39.4    94    1.5    73     2.9   906.0    0.00 
 352    6:50   0.00   38.8    94    1.8   257     2.9   906.2    0.00 
 352    7:00   0.00   38.9    94    1.8   316     2.6   906.3    0.00 
 352    7:10   0.02   38.6    94    2.5   307     3.5   906.4    0.00 
 352    7:20   0.04   38.8    95    2.3   317     3.7   906.5    0.00 
 352    7:30   0.04   38.9    94    1.6   162     3.6   906.7    0.00 
 352    7:40   0.09   39.4    95    0.7   130     1.7   906.7    0.00 
 352    7:50   0.04   39.7    93    1.9   344     4.9   906.8    0.00 
 352    8:00   0.11   39.3    92    3.0   342     4.5   906.9    0.00 
 352    8:10   0.09   40.4    92    4.2   330     6.5   907.0    0.00 
 352    8:20   0.07   40.1    90    4.6   346     6.9   907.2    0.00 
 352    8:30   0.10   40.2    90    5.6   350     8.1   907.4    0.00 
 352    8:40   0.12   40.8    90    5.5   345     7.8   907.5    0.00 
 352    8:50   0.14   41.3    89    6.0   348     9.2   907.6    0.00 
 352    9:00   0.12   41.8    88    5.8   346     8.6   907.6    0.00 
 352    9:10   0.11   42.1    86    5.3   343     7.9   907.8    0.00 
 352    9:20   0.12   42.5    85    4.9   340     7.6   908.0    0.00 
 352    9:30   0.13   42.7    84    5.0   335     7.9   908.0    0.00 
 352    9:40   0.15   43.0    83    5.3   344     8.2   908.2    0.00 
 352    9:50   0.16   43.6    81    5.5   334     8.6   908.3    0.00 
 352   10:00   0.17   44.0    78    5.9   333     9.8   908.3    0.00 
 352   10:10   0.22   44.8    78    5.6   330     9.1   908.3    0.00 
 352   10:20   0.26   45.6    75    5.7   332     8.3   908.3    0.00 
 352   10:30   0.31   46.4    72    5.5   307     8.0   908.3    0.00 
 352   10:40   0.33   47.0    70    5.4   308     8.2   908.2    0.00 
 352   10:50   0.22   46.8    67    5.8   324     8.8   908.1    0.00 
 352   11:00   0.19   46.5    67    4.9   318     7.3   908.0    0.00 
 352   11:10   0.24   47.0    66    4.8   334     8.6   908.0    0.00 
 352   11:20   0.32   47.3    65    5.5   324     8.6   907.9    0.00 
 352   11:30   0.39   48.1    64    5.0   338     9.2   907.8    0.00 
 352   11:40   0.23   48.0    63    3.0   351     6.9   907.7    0.00 
 352   11:50   0.21   47.7    64    4.3   340     8.0   907.7    0.00 
 352   12:00   0.23   47.8    63    4.0   333     6.5   907.6    0.00 
 352   12:10   0.27   48.5    60    4.0   323     7.7   907.5    0.00 
 352   12:20   0.27   48.8    57    2.8   310     5.0   907.4    0.00 
 352   12:30   0.17   48.5    56    2.4   284     5.4   907.3    0.00 
 352   12:40   0.22   47.9    58    2.5   298     4.2   907.2    0.00 
 352   12:50   0.45   50.0    54    1.5   270     3.8   907.1    0.00 
 352   13:00   0.44   51.5    51    2.3   168     5.4   906.8    0.00 
 352   13:10   0.41   51.3    51    2.1   118     5.0   906.8    0.00 
 352   13:20   0.39   51.2    51    3.1   166     5.2   906.7    0.00 
 352   13:30   0.37   50.5    52    2.7   128     5.3   906.6    0.00 
 352   13:40   0.36   51.0    51    2.8   116     7.0   906.5    0.00 
 352   13:50   0.34   50.9    51    3.9   123     7.0   906.6    0.00 
 352   14:00   0.32   51.2    50    3.0   125     5.8   906.7    0.00 
 352   14:10   0.30   51.5    49    2.1   142     5.3   906.7    0.00 
 352   14:20   0.29   51.7    48    3.0   166     6.7   906.8    0.00 
 352   14:30   0.27   51.2    48    3.6   150     6.5   906.7    0.00 
 352   14:40   100.00  99999.0   99999  99999.0   99999   99999.0   99999.0   99999.00 
 352   14:50   0.22   52.5    45    2.1   175     5.1   906.8    0.00 
 352   15:00   0.20   51.7    46    2.2   119     4.8   906.9    0.00 
 352   15:10   0.17   52.8    45    2.0   190     3.7   907.0    0.00 
 352   15:20   0.11   52.3    45    1.2   146     3.7   907.1    0.00 
 352   15:30   0.04   49.9    49    0.2   139     1.6   907.1    0.00 
 352   15:40   0.08   49.7    50    0.0     0     0.0   907.1    0.00 
 352   15:50   0.09   50.9    48    0.0     0     0.0   907.1    0.00 
 352   16:00   0.06   50.4    49    0.0     0     0.0   907.1    0.00 
 352   16:10   0.01   49.2    51    0.2   330     2.3   907.3    0.00 
 352   16:20   0.01   43.9    60    2.6   338     3.6   907.3    0.00 
 352   16:30   0.01   39.8    70    2.6   314     3.9   907.2    0.00 
 352   16:40   0.00   38.3    75    1.3   328     2.3   907.2    0.00 
 352   16:50   0.00   38.7    82    1.0    51     1.7   907.2    0.00 
 352   17:00   0.00   40.5    79    0.5   333     1.4   907.2    0.00 
 352   17:10   0.00   39.7    79    1.4   356     3.0   907.1    0.00 
 352   17:20   0.00   38.1    82    2.3    13     3.1   907.0    0.00 
 352   17:30   0.00   35.7    86    1.1   350     1.7   907.0    0.00 
 352   17:40   0.00   33.9    86    2.1   283     3.9   907.1    0.00 
 352   17:50   0.00   32.5    90    1.6   357     3.0   907.3    0.00 
 352   18:00   0.00   34.7    92    2.6     9     3.3   907.3    0.00 
 352   18:10   0.00   33.3    89    0.6    15     2.3   907.4    0.00 
 352   18:20   0.00   32.7    91    1.5   353     2.3   907.4    0.00 
 352   18:30   0.00   32.0    92    2.1   334     3.1   907.5    0.00 
 352   18:40   0.00   31.7    93    2.0   360     3.2   907.7    0.00 
 352   18:50   0.00   30.9    93    1.7   337     2.5   907.7    0.00 
 352   19:00   0.00   29.7    94    1.1   307     2.6   907.8    0.00 
 352   19:10   0.00   31.0    95    0.6   325     1.7   907.9    0.00 
 352   19:20   0.00   30.8    94    0.3    92     1.3   907.9    0.00 
 352   19:30   0.00   30.1    95    0.4   100     2.6   907.9    0.00 
 352   19:40   0.00   30.5    95    1.3     6     3.0   908.0    0.00 
 352   19:50   0.00   31.8    96    1.6     1     3.3   908.0    0.00 
 352   20:00   0.00   29.0    94    1.6   324     2.6   908.1    0.00 
 352   20:10   0.00   27.8    95    1.1   316     2.6   908.2    0.00 
 352   20:20   0.00   28.7    96    1.3    94     1.9   908.3    0.00 
 352   20:30   0.00   29.1    96    1.0   236     3.4   908.4    0.00 
 352   20:40   0.00   29.2    96    2.1   242     2.9   908.4    0.00 

Return to Pahranagat N. Wildlife Refuge graphs page.


Western Regional Climate Center,wrcc@dri.edu